sensor_id;sensor_type;location;lat;lon;timestamp;temperature;humidity
20672;DHT22;10495;50.922;4.760;2023-07-20T00:02:20;18.30;86.40
20672;DHT22;10495;50.922;4.760;2023-07-20T00:04:46;18.30;86.50
20672;DHT22;10495;50.922;4.760;2023-07-20T00:07:12;18.30;86.80
20672;DHT22;10495;50.922;4.760;2023-07-20T00:09:37;18.30;86.60
20672;DHT22;10495;50.922;4.760;2023-07-20T00:12:03;18.30;86.70
20672;DHT22;10495;50.922;4.760;2023-07-20T00:14:29;18.40;86.60
20672;DHT22;10495;50.922;4.760;2023-07-20T00:16:56;18.30;86.60
20672;DHT22;10495;50.922;4.760;2023-07-20T00:19:25;18.40;86.60
20672;DHT22;10495;50.922;4.760;2023-07-20T00:21:52;18.50;86.40
20672;DHT22;10495;50.922;4.760;2023-07-20T00:24:17;18.50;86.40
20672;DHT22;10495;50.922;4.760;2023-07-20T00:26:43;18.60;86.40
20672;DHT22;10495;50.922;4.760;2023-07-20T00:29:10;18.60;85.90
20672;DHT22;10495;50.922;4.760;2023-07-20T00:31:35;18.50;86.10
20672;DHT22;10495;50.922;4.760;2023-07-20T00:34:03;18.50;86.30
20672;DHT22;10495;50.922;4.760;2023-07-20T00:36:29;18.50;86.60
20672;DHT22;10495;50.922;4.760;2023-07-20T00:38:55;18.50;86.60
20672;DHT22;10495;50.922;4.760;2023-07-20T00:41:20;18.60;86.20
20672;DHT22;10495;50.922;4.760;2023-07-20T00:43:46;18.50;86.50
20672;DHT22;10495;50.922;4.760;2023-07-20T00:46:12;18.60;86.40
20672;DHT22;10495;50.922;4.760;2023-07-20T00:48:40;18.60;86.60
20672;DHT22;10495;50.922;4.760;2023-07-20T00:51:06;18.70;86.60
20672;DHT22;10495;50.922;4.760;2023-07-20T00:53:32;18.70;86.30
20672;DHT22;10495;50.922;4.760;2023-07-20T00:55:58;18.70;86.50
20672;DHT22;10495;50.922;4.760;2023-07-20T00:58:23;18.80;86.30
20672;DHT22;10495;50.922;4.760;2023-07-20T01:00:49;18.80;86.10
20672;DHT22;10495;50.922;4.760;2023-07-20T01:03:15;18.80;86.30
20672;DHT22;10495;50.922;4.760;2023-07-20T01:08:21;18.70;86.80
20672;DHT22;10495;50.922;4.760;2023-07-20T01:11:10;18.70;86.90
20672;DHT22;10495;50.922;4.760;2023-07-20T01:13:38;18.70;86.80
20672;DHT22;10495;50.922;4.760;2023-07-20T01:16:04;18.60;87.20
20672;DHT22;10495;50.922;4.760;2023-07-20T01:18:29;18.70;87.20
20672;DHT22;10495;50.922;4.760;2023-07-20T01:21:19;18.60;87.50
20672;DHT22;10495;50.922;4.760;2023-07-20T01:27:13;18.60;87.70
20672;DHT22;10495;50.922;4.760;2023-07-20T01:32:26;18.70;87.60
20672;DHT22;10495;50.922;4.760;2023-07-20T01:34:54;18.60;87.50
20672;DHT22;10495;50.922;4.760;2023-07-20T01:37:21;18.50;87.50
20672;DHT22;10495;50.922;4.760;2023-07-20T01:39:51;18.50;88.10
20672;DHT22;10495;50.922;4.760;2023-07-20T01:42:16;18.40;87.50
20672;DHT22;10495;50.922;4.760;2023-07-20T01:44:42;18.30;87.60
20672;DHT22;10495;50.922;4.760;2023-07-20T01:47:08;18.30;87.60
20672;DHT22;10495;50.922;4.760;2023-07-20T01:49:33;18.40;87.80
20672;DHT22;10495;50.922;4.760;2023-07-20T01:51:59;18.30;88.00
20672;DHT22;10495;50.922;4.760;2023-07-20T01:54:25;18.20;88.00
20672;DHT22;10495;50.922;4.760;2023-07-20T01:56:50;18.20;87.90
20672;DHT22;10495;50.922;4.760;2023-07-20T01:59:16;18.20;88.10
20672;DHT22;10495;50.922;4.760;2023-07-20T02:01:41;18.20;88.20
20672;DHT22;10495;50.922;4.760;2023-07-20T02:04:07;18.20;88.00
20672;DHT22;10495;50.922;4.760;2023-07-20T02:06:33;18.20;88.00
20672;DHT22;10495;50.922;4.760;2023-07-20T02:08:58;18.20;88.20
20672;DHT22;10495;50.922;4.760;2023-07-20T02:11:24;18.10;88.30
20672;DHT22;10495;50.922;4.760;2023-07-20T02:13:50;18.10;88.30
20672;DHT22;10495;50.922;4.760;2023-07-20T02:16:15;18.10;88.30
20672;DHT22;10495;50.922;4.760;2023-07-20T02:18:41;18.00;88.20
20672;DHT22;10495;50.922;4.760;2023-07-20T02:21:06;18.00;88.30
20672;DHT22;10495;50.922;4.760;2023-07-20T02:23:32;18.10;88.10
20672;DHT22;10495;50.922;4.760;2023-07-20T02:25:58;18.00;88.00
20672;DHT22;10495;50.922;4.760;2023-07-20T02:28:23;17.90;88.10
20672;DHT22;10495;50.922;4.760;2023-07-20T02:30:49;17.90;88.30
20672;DHT22;10495;50.922;4.760;2023-07-20T02:33:15;17.80;88.50
20672;DHT22;10495;50.922;4.760;2023-07-20T02:35:41;17.80;88.40
20672;DHT22;10495;50.922;4.760;2023-07-20T02:38:06;17.70;88.90
20672;DHT22;10495;50.922;4.760;2023-07-20T02:40:32;17.80;88.80
20672;DHT22;10495;50.922;4.760;2023-07-20T02:42:58;17.80;89.10
20672;DHT22;10495;50.922;4.760;2023-07-20T02:45:23;17.80;89.00
20672;DHT22;10495;50.922;4.760;2023-07-20T02:47:49;17.70;89.40
20672;DHT22;10495;50.922;4.760;2023-07-20T02:50:14;17.70;89.40
20672;DHT22;10495;50.922;4.760;2023-07-20T02:52:40;17.80;89.30
20672;DHT22;10495;50.922;4.760;2023-07-20T02:55:06;17.80;89.00
20672;DHT22;10495;50.922;4.760;2023-07-20T02:57:32;17.80;89.30
20672;DHT22;10495;50.922;4.760;2023-07-20T02:59:57;17.70;89.20
20672;DHT22;10495;50.922;4.760;2023-07-20T03:02:23;17.70;89.10
20672;DHT22;10495;50.922;4.760;2023-07-20T03:04:48;17.60;89.20
20672;DHT22;10495;50.922;4.760;2023-07-20T03:07:14;17.60;89.60
20672;DHT22;10495;50.922;4.760;2023-07-20T03:09:40;17.60;89.50
20672;DHT22;10495;50.922;4.760;2023-07-20T03:12:07;17.60;89.50
20672;DHT22;10495;50.922;4.760;2023-07-20T03:14:32;17.60;89.60
20672;DHT22;10495;50.922;4.760;2023-07-20T03:16:58;17.60;89.40
20672;DHT22;10495;50.922;4.760;2023-07-20T03:19:23;17.50;89.40
20672;DHT22;10495;50.922;4.760;2023-07-20T03:21:49;17.40;89.50
20672;DHT22;10495;50.922;4.760;2023-07-20T03:24:15;17.40;89.60
20672;DHT22;10495;50.922;4.760;2023-07-20T03:26:41;17.30;89.50
20672;DHT22;10495;50.922;4.760;2023-07-20T03:29:06;17.30;89.60
20672;DHT22;10495;50.922;4.760;2023-07-20T03:31:32;17.30;89.60
20672;DHT22;10495;50.922;4.760;2023-07-20T03:33:58;17.20;89.50
20672;DHT22;10495;50.922;4.760;2023-07-20T03:36:23;17.20;89.50
20672;DHT22;10495;50.922;4.760;2023-07-20T03:38:49;17.30;89.60
20672;DHT22;10495;50.922;4.760;2023-07-20T03:41:15;17.30;89.60
20672;DHT22;10495;50.922;4.760;2023-07-20T03:43:41;17.20;90.10
20672;DHT22;10495;50.922;4.760;2023-07-20T03:46:07;17.20;90.20
20672;DHT22;10495;50.922;4.760;2023-07-20T03:48:33;17.20;90.00
20672;DHT22;10495;50.922;4.760;2023-07-20T03:50:59;17.10;90.00
20672;DHT22;10495;50.922;4.760;2023-07-20T03:53:25;17.20;90.00
20672;DHT22;10495;50.922;4.760;2023-07-20T03:55:52;17.20;90.10
20672;DHT22;10495;50.922;4.760;2023-07-20T03:58:19;17.20;90.10
20672;DHT22;10495;50.922;4.760;2023-07-20T04:00:49;17.20;90.20
20672;DHT22;10495;50.922;4.760;2023-07-20T04:03:19;17.20;90.20
20672;DHT22;10495;50.922;4.760;2023-07-20T04:05:45;17.30;90.60
20672;DHT22;10495;50.922;4.760;2023-07-20T04:08:11;17.40;90.40
20672;DHT22;10495;50.922;4.760;2023-07-20T04:10:37;17.40;90.50
20672;DHT22;10495;50.922;4.760;2023-07-20T04:13:03;17.40;90.60
20672;DHT22;10495;50.922;4.760;2023-07-20T04:15:29;17.40;90.60
20672;DHT22;10495;50.922;4.760;2023-07-20T04:17:56;17.50;90.60
20672;DHT22;10495;50.922;4.760;2023-07-20T04:20:22;17.70;90.60
20672;DHT22;10495;50.922;4.760;2023-07-20T04:22:48;17.60;90.70
20672;DHT22;10495;50.922;4.760;2023-07-20T04:25:14;17.70;90.80
20672;DHT22;10495;50.922;4.760;2023-07-20T04:27:39;17.80;90.90
20672;DHT22;10495;50.922;4.760;2023-07-20T04:30:08;17.90;90.70
20672;DHT22;10495;50.922;4.760;2023-07-20T04:32:33;17.90;90.90
20672;DHT22;10495;50.922;4.760;2023-07-20T04:34:59;17.80;91.10
20672;DHT22;10495;50.922;4.760;2023-07-20T04:37:25;17.90;90.90
20672;DHT22;10495;50.922;4.760;2023-07-20T04:39:50;17.90;91.00
20672;DHT22;10495;50.922;4.760;2023-07-20T04:42:16;17.90;90.90
20672;DHT22;10495;50.922;4.760;2023-07-20T04:44:42;18.10;90.90
20672;DHT22;10495;50.922;4.760;2023-07-20T04:47:07;18.10;90.90
20672;DHT22;10495;50.922;4.760;2023-07-20T04:49:34;18.10;91.10
20672;DHT22;10495;50.922;4.760;2023-07-20T04:51:59;18.20;91.00
20672;DHT22;10495;50.922;4.760;2023-07-20T04:54:25;18.20;90.90
20672;DHT22;10495;50.922;4.760;2023-07-20T04:56:53;18.20;91.00
20672;DHT22;10495;50.922;4.760;2023-07-20T04:59:18;18.30;90.90
20672;DHT22;10495;50.922;4.760;2023-07-20T05:01:44;18.40;90.80
20672;DHT22;10495;50.922;4.760;2023-07-20T05:04:10;18.40;90.90
20672;DHT22;10495;50.922;4.760;2023-07-20T05:06:35;18.30;90.90
20672;DHT22;10495;50.922;4.760;2023-07-20T05:09:01;18.30;90.90
20672;DHT22;10495;50.922;4.760;2023-07-20T05:11:27;18.30;91.10
20672;DHT22;10495;50.922;4.760;2023-07-20T05:13:52;18.50;90.90
20672;DHT22;10495;50.922;4.760;2023-07-20T05:16:18;18.50;90.80
20672;DHT22;10495;50.922;4.760;2023-07-20T05:18:44;18.50;90.90
20672;DHT22;10495;50.922;4.760;2023-07-20T05:21:09;18.40;90.90
20672;DHT22;10495;50.922;4.760;2023-07-20T05:23:35;18.50;90.90
20672;DHT22;10495;50.922;4.760;2023-07-20T05:26:00;18.60;90.90
20672;DHT22;10495;50.922;4.760;2023-07-20T05:28:26;18.60;90.90
20672;DHT22;10495;50.922;4.760;2023-07-20T05:30:53;18.50;91.10
20672;DHT22;10495;50.922;4.760;2023-07-20T05:33:22;18.50;90.80
20672;DHT22;10495;50.922;4.760;2023-07-20T05:35:48;18.50;90.80
20672;DHT22;10495;50.922;4.760;2023-07-20T05:38:13;18.50;90.90
20672;DHT22;10495;50.922;4.760;2023-07-20T05:40:41;18.50;90.90
20672;DHT22;10495;50.922;4.760;2023-07-20T05:43:10;18.60;91.00
20672;DHT22;10495;50.922;4.760;2023-07-20T05:45:36;18.50;91.10
20672;DHT22;10495;50.922;4.760;2023-07-20T05:48:01;18.60;91.10
20672;DHT22;10495;50.922;4.760;2023-07-20T05:50:27;18.70;91.00
20672;DHT22;10495;50.922;4.760;2023-07-20T05:52:53;18.80;90.80
20672;DHT22;10495;50.922;4.760;2023-07-20T05:55:20;18.90;90.70
20672;DHT22;10495;50.922;4.760;2023-07-20T05:57:46;18.90;90.70
20672;DHT22;10495;50.922;4.760;2023-07-20T06:00:13;18.70;90.80
20672;DHT22;10495;50.922;4.760;2023-07-20T06:02:39;18.70;90.90
20672;DHT22;10495;50.922;4.760;2023-07-20T06:05:06;18.80;90.80
20672;DHT22;10495;50.922;4.760;2023-07-20T06:07:36;18.80;90.80
20672;DHT22;10495;50.922;4.760;2023-07-20T06:10:01;18.90;90.90
20672;DHT22;10495;50.922;4.760;2023-07-20T06:12:27;19.00;90.80
20672;DHT22;10495;50.922;4.760;2023-07-20T06:14:53;19.00;90.80
20672;DHT22;10495;50.922;4.760;2023-07-20T06:17:19;19.00;90.80
20672;DHT22;10495;50.922;4.760;2023-07-20T06:19:45;19.00;90.60
20672;DHT22;10495;50.922;4.760;2023-07-20T06:22:11;19.20;90.20
20672;DHT22;10495;50.922;4.760;2023-07-20T06:24:37;19.00;90.50
20672;DHT22;10495;50.922;4.760;2023-07-20T06:27:03;19.00;90.30
20672;DHT22;10495;50.922;4.760;2023-07-20T06:29:31;19.10;90.60
20672;DHT22;10495;50.922;4.760;2023-07-20T06:31:56;19.10;90.50
20672;DHT22;10495;50.922;4.760;2023-07-20T06:34:22;19.20;90.50
20672;DHT22;10495;50.922;4.760;2023-07-20T06:36:48;19.20;90.40
20672;DHT22;10495;50.922;4.760;2023-07-20T06:39:13;19.30;90.40
20672;DHT22;10495;50.922;4.760;2023-07-20T06:41:39;19.30;90.30
20672;DHT22;10495;50.922;4.760;2023-07-20T06:44:05;19.40;90.20
20672;DHT22;10495;50.922;4.760;2023-07-20T06:46:31;19.60;90.00
20672;DHT22;10495;50.922;4.760;2023-07-20T06:48:56;19.70;89.90
20672;DHT22;10495;50.922;4.760;2023-07-20T06:51:22;19.90;89.40
20672;DHT22;10495;50.922;4.760;2023-07-20T06:53:48;19.90;89.70
20672;DHT22;10495;50.922;4.760;2023-07-20T06:56:14;20.00;90.00
20672;DHT22;10495;50.922;4.760;2023-07-20T06:58:39;20.10;89.60
20672;DHT22;10495;50.922;4.760;2023-07-20T07:01:06;20.20;89.00
20672;DHT22;10495;50.922;4.760;2023-07-20T07:03:32;20.20;88.60
20672;DHT22;10495;50.922;4.760;2023-07-20T07:05:58;20.30;88.50
20672;DHT22;10495;50.922;4.760;2023-07-20T07:08:23;20.30;88.30
20672;DHT22;10495;50.922;4.760;2023-07-20T07:10:50;20.30;87.40
20672;DHT22;10495;50.922;4.760;2023-07-20T07:13:16;20.30;87.00
20672;DHT22;10495;50.922;4.760;2023-07-20T07:15:42;20.30;86.30
20672;DHT22;10495;50.922;4.760;2023-07-20T07:18:08;20.30;86.40
20672;DHT22;10495;50.922;4.760;2023-07-20T07:20:33;20.20;86.60
20672;DHT22;10495;50.922;4.760;2023-07-20T07:22:59;20.20;85.90
20672;DHT22;10495;50.922;4.760;2023-07-20T07:25:26;20.30;85.60
20672;DHT22;10495;50.922;4.760;2023-07-20T07:27:53;20.30;85.00
20672;DHT22;10495;50.922;4.760;2023-07-20T07:30:19;20.30;84.80
20672;DHT22;10495;50.922;4.760;2023-07-20T07:32:45;20.40;84.30
20672;DHT22;10495;50.922;4.760;2023-07-20T07:35:13;20.40;84.40
20672;DHT22;10495;50.922;4.760;2023-07-20T07:37:39;20.50;84.50
20672;DHT22;10495;50.922;4.760;2023-07-20T07:40:05;20.70;83.40
20672;DHT22;10495;50.922;4.760;2023-07-20T07:42:31;20.90;83.20
20672;DHT22;10495;50.922;4.760;2023-07-20T07:44:57;20.90;83.00
20672;DHT22;10495;50.922;4.760;2023-07-20T07:47:23;21.30;82.50
20672;DHT22;10495;50.922;4.760;2023-07-20T07:49:48;21.50;81.30
20672;DHT22;10495;50.922;4.760;2023-07-20T07:52:15;21.70;80.10
20672;DHT22;10495;50.922;4.760;2023-07-20T07:54:40;22.00;77.70
20672;DHT22;10495;50.922;4.760;2023-07-20T07:57:06;22.10;77.50
20672;DHT22;10495;50.922;4.760;2023-07-20T07:59:32;22.10;77.60
20672;DHT22;10495;50.922;4.760;2023-07-20T08:02:03;22.30;77.20
20672;DHT22;10495;50.922;4.760;2023-07-20T08:04:29;22.50;75.60
20672;DHT22;10495;50.922;4.760;2023-07-20T08:06:55;22.70;75.90
20672;DHT22;10495;50.922;4.760;2023-07-20T08:09:21;23.00;75.90
20672;DHT22;10495;50.922;4.760;2023-07-20T08:11:46;23.10;75.10
20672;DHT22;10495;50.922;4.760;2023-07-20T08:14:13;23.30;76.90
20672;DHT22;10495;50.922;4.760;2023-07-20T08:16:39;23.50;74.10
20672;DHT22;10495;50.922;4.760;2023-07-20T08:19:04;23.70;72.60
20672;DHT22;10495;50.922;4.760;2023-07-20T08:21:30;24.30;67.80
20672;DHT22;10495;50.922;4.760;2023-07-20T08:23:56;24.20;67.80
20672;DHT22;10495;50.922;4.760;2023-07-20T08:26:22;24.40;70.70
20672;DHT22;10495;50.922;4.760;2023-07-20T08:28:48;24.80;66.00
20672;DHT22;10495;50.922;4.760;2023-07-20T08:31:14;25.10;69.50
20672;DHT22;10495;50.922;4.760;2023-07-20T08:33:39;25.60;62.90
20672;DHT22;10495;50.922;4.760;2023-07-20T08:36:05;25.50;65.00
20672;DHT22;10495;50.922;4.760;2023-07-20T08:38:31;25.50;62.20
20672;DHT22;10495;50.922;4.760;2023-07-20T08:40:57;25.40;65.70
20672;DHT22;10495;50.922;4.760;2023-07-20T08:43:25;25.60;67.20
20672;DHT22;10495;50.922;4.760;2023-07-20T08:45:53;25.90;66.50
20672;DHT22;10495;50.922;4.760;2023-07-20T08:48:20;26.30;63.90
20672;DHT22;10495;50.922;4.760;2023-07-20T08:50:49;26.60;60.60
20672;DHT22;10495;50.922;4.760;2023-07-20T08:53:16;26.70;59.70
20672;DHT22;10495;50.922;4.760;2023-07-20T08:55:44;27.00;59.50
20672;DHT22;10495;50.922;4.760;2023-07-20T08:58:13;26.60;57.90
20672;DHT22;10495;50.922;4.760;2023-07-20T09:00:41;26.20;58.50
20672;DHT22;10495;50.922;4.760;2023-07-20T09:03:07;25.90;58.40
20672;DHT22;10495;50.922;4.760;2023-07-20T09:05:34;26.10;58.20
20672;DHT22;10495;50.922;4.760;2023-07-20T09:08:01;26.20;58.10
20672;DHT22;10495;50.922;4.760;2023-07-20T09:10:28;26.30;59.20
20672;DHT22;10495;50.922;4.760;2023-07-20T09:12:53;26.60;60.00
20672;DHT22;10495;50.922;4.760;2023-07-20T09:15:21;27.10;59.30
20672;DHT22;10495;50.922;4.760;2023-07-20T09:17:48;27.30;59.10
20672;DHT22;10495;50.922;4.760;2023-07-20T09:20:18;27.30;57.50
20672;DHT22;10495;50.922;4.760;2023-07-20T09:22:45;27.00;56.80
20672;DHT22;10495;50.922;4.760;2023-07-20T09:25:15;26.40;57.80
20672;DHT22;10495;50.922;4.760;2023-07-20T09:27:45;26.20;59.30
20672;DHT22;10495;50.922;4.760;2023-07-20T09:30:13;26.50;57.30
20672;DHT22;10495;50.922;4.760;2023-07-20T09:32:44;26.70;59.10
20672;DHT22;10495;50.922;4.760;2023-07-20T09:35:20;27.20;59.10
20672;DHT22;10495;50.922;4.760;2023-07-20T09:37:59;28.00;59.60
20672;DHT22;10495;50.922;4.760;2023-07-20T09:40:26;28.70;58.20
20672;DHT22;10495;50.922;4.760;2023-07-20T09:42:55;28.50;56.30
20672;DHT22;10495;50.922;4.760;2023-07-20T09:45:33;28.10;56.80
20672;DHT22;10495;50.922;4.760;2023-07-20T09:48:06;28.00;57.00
20672;DHT22;10495;50.922;4.760;2023-07-20T09:50:43;28.00;55.80
20672;DHT22;10495;50.922;4.760;2023-07-20T09:53:13;27.60;56.20
20672;DHT22;10495;50.922;4.760;2023-07-20T09:55:40;27.30;56.40
20672;DHT22;10495;50.922;4.760;2023-07-20T09:58:08;26.90;56.80
20672;DHT22;10495;50.922;4.760;2023-07-20T10:00:37;26.80;56.80
20672;DHT22;10495;50.922;4.760;2023-07-20T10:03:04;27.10;55.50
20672;DHT22;10495;50.922;4.760;2023-07-20T10:05:35;27.20;56.00
20672;DHT22;10495;50.922;4.760;2023-07-20T10:08:03;27.90;54.60
20672;DHT22;10495;50.922;4.760;2023-07-20T10:10:32;27.90;54.50
20672;DHT22;10495;50.922;4.760;2023-07-20T10:13:00;28.30;54.10
20672;DHT22;10495;50.922;4.760;2023-07-20T10:15:57;28.90;53.90
20672;DHT22;10495;50.922;4.760;2023-07-20T10:20:55;29.00;53.80
20672;DHT22;10495;50.922;4.760;2023-07-20T10:23:21;28.50;53.80
20672;DHT22;10495;50.922;4.760;2023-07-20T10:25:48;28.00;52.20
20672;DHT22;10495;50.922;4.760;2023-07-20T10:28:14;27.40;54.10
20672;DHT22;10495;50.922;4.760;2023-07-20T10:30:40;27.80;57.00
20672;DHT22;10495;50.922;4.760;2023-07-20T10:33:06;28.10;53.40
20672;DHT22;10495;50.922;4.760;2023-07-20T10:35:51;28.30;54.30
20672;DHT22;10495;50.922;4.760;2023-07-20T10:38:17;28.30;53.80
20672;DHT22;10495;50.922;4.760;2023-07-20T10:40:43;28.50;54.50
20672;DHT22;10495;50.922;4.760;2023-07-20T10:43:19;28.50;54.50
20672;DHT22;10495;50.922;4.760;2023-07-20T10:45:50;27.90;54.90
20672;DHT22;10495;50.922;4.760;2023-07-20T10:48:23;28.10;54.40
20672;DHT22;10495;50.922;4.760;2023-07-20T10:51:11;28.00;55.20
20672;DHT22;10495;50.922;4.760;2023-07-20T10:53:39;28.00;54.70
20672;DHT22;10495;50.922;4.760;2023-07-20T10:56:13;27.60;54.90
20672;DHT22;10495;50.922;4.760;2023-07-20T10:58:40;27.30;54.10
20672;DHT22;10495;50.922;4.760;2023-07-20T11:01:08;27.10;53.80
20672;DHT22;10495;50.922;4.760;2023-07-20T11:03:39;26.80;54.10
20672;DHT22;10495;50.922;4.760;2023-07-20T11:09:05;27.20;55.90
20672;DHT22;10495;50.922;4.760;2023-07-20T11:11:39;27.20;55.40
20672;DHT22;10495;50.922;4.760;2023-07-20T11:14:07;27.30;55.10
20672;DHT22;10495;50.922;4.760;2023-07-20T11:18:59;27.00;54.30
20672;DHT22;10495;50.922;4.760;2023-07-20T11:21:24;26.70;54.50
20672;DHT22;10495;50.922;4.760;2023-07-20T11:23:52;26.40;53.70
20672;DHT22;10495;50.922;4.760;2023-07-20T11:26:18;26.30;52.60
20672;DHT22;10495;50.922;4.760;2023-07-20T11:28:49;26.20;53.50
20672;DHT22;10495;50.922;4.760;2023-07-20T11:31:15;26.60;55.40
20672;DHT22;10495;50.922;4.760;2023-07-20T11:33:43;26.80;55.50
20672;DHT22;10495;50.922;4.760;2023-07-20T11:36:09;26.70;53.60
20672;DHT22;10495;50.922;4.760;2023-07-20T11:38:35;26.40;54.00
20672;DHT22;10495;50.922;4.760;2023-07-20T11:41:03;26.30;53.60
20672;DHT22;10495;50.922;4.760;2023-07-20T11:43:30;26.50;54.20
20672;DHT22;10495;50.922;4.760;2023-07-20T11:45:56;26.50;54.80
20672;DHT22;10495;50.922;4.760;2023-07-20T11:48:21;26.20;54.50
20672;DHT22;10495;50.922;4.760;2023-07-20T11:50:47;26.30;54.40
20672;DHT22;10495;50.922;4.760;2023-07-20T11:53:14;26.00;53.80
20672;DHT22;10495;50.922;4.760;2023-07-20T11:55:40;25.90;54.80
20672;DHT22;10495;50.922;4.760;2023-07-20T11:58:07;25.90;54.90
20672;DHT22;10495;50.922;4.760;2023-07-20T12:00:35;25.70;54.40
20672;DHT22;10495;50.922;4.760;2023-07-20T12:03:04;25.60;54.90
20672;DHT22;10495;50.922;4.760;2023-07-20T12:05:30;25.70;55.50
20672;DHT22;10495;50.922;4.760;2023-07-20T12:07:55;25.80;55.70
20672;DHT22;10495;50.922;4.760;2023-07-20T12:10:26;25.60;54.50
20672;DHT22;10495;50.922;4.760;2023-07-20T12:12:52;25.50;54.60
20672;DHT22;10495;50.922;4.760;2023-07-20T12:15:25;25.30;54.80
20672;DHT22;10495;50.922;4.760;2023-07-20T12:18:00;25.70;55.70
20672;DHT22;10495;50.922;4.760;2023-07-20T12:20:26;25.90;56.20
20672;DHT22;10495;50.922;4.760;2023-07-20T12:22:52;26.00;55.60
20672;DHT22;10495;50.922;4.760;2023-07-20T12:25:19;26.30;55.30
20672;DHT22;10495;50.922;4.760;2023-07-20T12:27:45;26.30;55.00
20672;DHT22;10495;50.922;4.760;2023-07-20T12:30:12;26.40;54.40
20672;DHT22;10495;50.922;4.760;2023-07-20T12:32:39;26.20;55.20
20672;DHT22;10495;50.922;4.760;2023-07-20T12:35:05;26.20;54.90
20672;DHT22;10495;50.922;4.760;2023-07-20T12:37:31;26.30;55.50
20672;DHT22;10495;50.922;4.760;2023-07-20T12:39:57;26.40;54.40
20672;DHT22;10495;50.922;4.760;2023-07-20T12:42:22;26.50;54.90
20672;DHT22;10495;50.922;4.760;2023-07-20T12:44:49;26.40;54.80
20672;DHT22;10495;50.922;4.760;2023-07-20T12:47:16;26.60;54.90
20672;DHT22;10495;50.922;4.760;2023-07-20T12:49:42;26.40;53.70
20672;DHT22;10495;50.922;4.760;2023-07-20T12:52:10;26.50;54.30
20672;DHT22;10495;50.922;4.760;2023-07-20T12:54:36;26.40;53.60
20672;DHT22;10495;50.922;4.760;2023-07-20T12:57:02;25.80;53.80
20672;DHT22;10495;50.922;4.760;2023-07-20T12:59:29;25.70;54.30
20672;DHT22;10495;50.922;4.760;2023-07-20T13:01:54;25.80;54.50
20672;DHT22;10495;50.922;4.760;2023-07-20T13:04:20;25.80;53.60
20672;DHT22;10495;50.922;4.760;2023-07-20T13:06:46;25.90;54.80
20672;DHT22;10495;50.922;4.760;2023-07-20T13:09:11;25.80;53.70
20672;DHT22;10495;50.922;4.760;2023-07-20T13:11:37;25.90;53.80
20672;DHT22;10495;50.922;4.760;2023-07-20T13:14:02;26.00;53.50
20672;DHT22;10495;50.922;4.760;2023-07-20T13:16:28;26.20;52.80
20672;DHT22;10495;50.922;4.760;2023-07-20T13:18:54;26.30;53.70
20672;DHT22;10495;50.922;4.760;2023-07-20T13:21:19;26.50;54.60
20672;DHT22;10495;50.922;4.760;2023-07-20T13:23:48;26.60;54.40
20672;DHT22;10495;50.922;4.760;2023-07-20T13:26:17;26.60;53.50
20672;DHT22;10495;50.922;4.760;2023-07-20T13:28:42;26.60;53.50
20672;DHT22;10495;50.922;4.760;2023-07-20T13:31:08;26.70;52.20
20672;DHT22;10495;50.922;4.760;2023-07-20T13:33:35;26.60;52.70
20672;DHT22;10495;50.922;4.760;2023-07-20T13:36:01;26.40;52.70
20672;DHT22;10495;50.922;4.760;2023-07-20T13:38:27;26.50;53.00
20672;DHT22;10495;50.922;4.760;2023-07-20T13:40:52;26.50;53.20
20672;DHT22;10495;50.922;4.760;2023-07-20T13:43:18;26.20;53.00
20672;DHT22;10495;50.922;4.760;2023-07-20T13:45:44;26.50;53.80
20672;DHT22;10495;50.922;4.760;2023-07-20T13:48:09;26.50;53.50
20672;DHT22;10495;50.922;4.760;2023-07-20T13:50:35;26.20;53.30
20672;DHT22;10495;50.922;4.760;2023-07-20T13:53:00;26.20;52.80
20672;DHT22;10495;50.922;4.760;2023-07-20T13:55:28;26.00;53.40
20672;DHT22;10495;50.922;4.760;2023-07-20T13:57:56;26.20;53.80
20672;DHT22;10495;50.922;4.760;2023-07-20T14:00:21;26.10;54.00
20672;DHT22;10495;50.922;4.760;2023-07-20T14:02:47;26.00;53.90
20672;DHT22;10495;50.922;4.760;2023-07-20T14:05:13;25.70;53.80
20672;DHT22;10495;50.922;4.760;2023-07-20T14:07:40;25.80;54.50
20672;DHT22;10495;50.922;4.760;2023-07-20T14:10:07;25.80;54.50
20672;DHT22;10495;50.922;4.760;2023-07-20T14:12:33;25.70;53.70
20672;DHT22;10495;50.922;4.760;2023-07-20T14:14:58;25.60;54.50
20672;DHT22;10495;50.922;4.760;2023-07-20T14:17:24;25.40;53.70
20672;DHT22;10495;50.922;4.760;2023-07-20T14:19:50;25.40;54.60
20672;DHT22;10495;50.922;4.760;2023-07-20T14:22:16;25.50;55.00
20672;DHT22;10495;50.922;4.760;2023-07-20T14:24:42;25.30;54.20
20672;DHT22;10495;50.922;4.760;2023-07-20T14:27:07;25.30;54.90
20672;DHT22;10495;50.922;4.760;2023-07-20T14:29:33;25.00;55.20
20672;DHT22;10495;50.922;4.760;2023-07-20T14:32:01;24.90;55.40
20672;DHT22;10495;50.922;4.760;2023-07-20T14:34:28;24.90;55.10
20672;DHT22;10495;50.922;4.760;2023-07-20T14:36:53;24.90;55.70
20672;DHT22;10495;50.922;4.760;2023-07-20T14:39:19;24.70;55.00
20672;DHT22;10495;50.922;4.760;2023-07-20T14:41:45;24.70;55.00
20672;DHT22;10495;50.922;4.760;2023-07-20T14:44:11;24.70;54.70
20672;DHT22;10495;50.922;4.760;2023-07-20T14:46:37;24.70;54.70
20672;DHT22;10495;50.922;4.760;2023-07-20T14:49:02;24.70;54.70
20672;DHT22;10495;50.922;4.760;2023-07-20T14:51:28;24.70;55.00
20672;DHT22;10495;50.922;4.760;2023-07-20T14:53:58;24.90;55.60
20672;DHT22;10495;50.922;4.760;2023-07-20T14:56:24;24.80;55.10
20672;DHT22;10495;50.922;4.760;2023-07-20T14:58:50;24.80;54.80
20672;DHT22;10495;50.922;4.760;2023-07-20T15:01:15;24.40;54.50
20672;DHT22;10495;50.922;4.760;2023-07-20T15:03:41;24.30;54.60
20672;DHT22;10495;50.922;4.760;2023-07-20T15:06:10;24.30;54.80
20672;DHT22;10495;50.922;4.760;2023-07-20T15:08:36;24.30;55.00
20672;DHT22;10495;50.922;4.760;2023-07-20T15:11:02;24.40;55.10
20672;DHT22;10495;50.922;4.760;2023-07-20T15:13:28;24.50;55.40
20672;DHT22;10495;50.922;4.760;2023-07-20T15:15:54;24.70;54.60
20672;DHT22;10495;50.922;4.760;2023-07-20T15:18:19;24.70;54.70
20672;DHT22;10495;50.922;4.760;2023-07-20T15:20:45;24.70;54.80
20672;DHT22;10495;50.922;4.760;2023-07-20T15:23:11;24.60;55.00
20672;DHT22;10495;50.922;4.760;2023-07-20T15:25:36;24.80;54.80
20672;DHT22;10495;50.922;4.760;2023-07-20T15:28:02;24.90;54.80
20672;DHT22;10495;50.922;4.760;2023-07-20T15:30:28;24.90;55.00
20672;DHT22;10495;50.922;4.760;2023-07-20T15:32:55;25.00;54.70
20672;DHT22;10495;50.922;4.760;2023-07-20T15:35:23;24.90;55.00
20672;DHT22;10495;50.922;4.760;2023-07-20T15:37:48;25.00;55.40
20672;DHT22;10495;50.922;4.760;2023-07-20T15:40:14;25.20;55.20
20672;DHT22;10495;50.922;4.760;2023-07-20T15:42:39;24.90;54.50
20672;DHT22;10495;50.922;4.760;2023-07-20T15:45:06;25.00;54.80